Centerville, Utah
Current Conditions -  °F | °C
As of 12:53 AM on Thursday 23 Oct 2014 (Local Time) from KSLC Reporting Station
Few Clouds Few Clouds  
Wind Chill:   Ceiling: Unl
Heat Index:   Visibility: 10mi
Dew Point:   Wind: 7mph
Humidity: 68%   Direction: 130°SE
Pressure: 30.15"   Gusts: NA
Location:  40.92°N, 111.87°W
Report Text: KSLC 230653Z 13006KT 10SM FEW200 07/01 A3015 RMK AO2 SLP190 T00670011 401720033
Loading
Personal Weather Stations






























Interactive Weather Map
Tropical Storm Tracking
New forecast layout! Learn more

10-Day Weather Forecast

Advertisements
Track Severe Weather on mobile